Time;durP1;ratioP1;P1;durP2;ratioP2;P2;SDS_P1;SDS_P2;PMS_P1;PMS_P2;Temp;Humidity;BMP_temperature;BMP_pressure;BME280_temperature;BME280_humidity;BME280_pressure;Samples;Min_cycle;Max_cycle;Signal;HPM_P1;HPM_P2
2021/12/23 00:01:30;;;;;;;36.58;20.05;;;;;;;-0.17;100.00;98727.84;5099298;28;20016;-79
2021/12/23 00:03:55;;;;;;;35.42;19.58;;;;;;;-0.16;100.00;98723.31;5097676;28;20024;-78
2021/12/23 00:06:21;;;;;;;35.05;19.05;;;;;;;-0.06;100.00;98729.06;5097706;28;20107;-81
2021/12/23 00:08:46;;;;;;;31.92;18.45;;;;;;;-0.15;100.00;98724.94;5097273;28;20035;-78
2021/12/23 00:11:12;;;;;;;34.80;18.85;;;;;;;-0.01;100.00;98724.75;5096901;28;20027;-79
2021/12/23 00:13:39;;;;;;;40.05;20.00;;;;;;;0.00;100.00;98731.75;5096621;28;20473;-79
2021/12/23 00:16:16;;;;;;;42.30;19.35;;;;;;;-0.15;100.00;98731.16;5096509;28;20035;-81
2021/12/23 00:18:46;;;;;;;35.75;20.02;;;;;;;-0.07;100.00;98727.44;5094461;28;20085;-77
2021/12/23 00:23:58;;;;;;;37.97;19.00;;;;;;;-0.04;100.00;98727.84;5098689;28;20043;-77
2021/12/23 00:26:25;;;;;;;41.25;19.55;;;;;;;-0.12;100.00;98717.28;5095674;28;20064;-79
2021/12/23 00:28:51;;;;;;;37.80;20.70;;;;;;;-0.18;100.00;98712.75;5095716;28;20019;-79
2021/12/23 00:31:16;;;;;;;33.92;18.63;;;;;;;-0.20;100.00;98714.84;5096259;28;20118;-81
2021/12/23 00:33:43;;;;;;;33.85;17.48;;;;;;;-0.28;100.00;98706.97;5095099;28;20069;-76
2021/12/23 00:36:10;;;;;;;34.28;17.73;;;;;;;-0.30;100.00;98702.84;5094902;28;20378;-76
2021/12/23 00:38:43;;;;;;;43.30;19.95;;;;;;;-0.25;100.00;98701.16;5094365;28;20020;-78
2021/12/23 00:41:09;;;;;;;37.90;19.63;;;;;;;-0.32;100.00;98699.53;5093233;28;20477;-75
2021/12/23 00:43:35;;;;;;;37.88;19.42;;;;;;;-0.42;100.00;98702.66;5094627;28;20056;-77
2021/12/23 00:46:03;;;;;;;33.53;18.65;;;;;;;-0.47;100.00;98683.59;5099963;28;20088;-82
2021/12/23 00:48:29;;;;;;;39.83;19.17;;;;;;;-0.53;100.00;98679.06;5105284;28;20024;-80
2021/12/23 00:50:55;;;;;;;45.15;21.08;;;;;;;-0.54;100.00;98677.44;5106534;28;20087;-82
2021/12/23 00:53:23;;;;;;;40.97;22.20;;;;;;;-0.53;100.00;98681.75;5104692;28;20048;-79
2021/12/23 00:55:52;;;;;;;38.60;20.10;;;;;;;-0.50;100.00;98686.72;5113334;28;20012;-81
2021/12/23 00:58:18;;;;;;;39.70;21.02;;;;;;;-0.58;100.00;98674.34;5112967;28;20035;-84
2021/12/23 01:00:44;;;;;;;43.47;22.70;;;;;;;-0.72;100.00;98674.53;5106188;28;20518;-81
2021/12/23 01:03:10;;;;;;;37.25;20.15;;;;;;;-0.74;100.00;98671.22;5101634;28;20032;-82
2021/12/23 01:05:36;;;;;;;42.25;21.08;;;;;;;-0.78;100.00;98662.75;5109852;28;20047;-81
2021/12/23 01:08:02;;;;;;;37.30;20.17;;;;;;;-0.83;100.00;98667.09;5113283;28;20055;-81
2021/12/23 01:10:28;;;;;;;41.60;20.88;;;;;;;-0.80;100.00;98664.81;5108997;28;20032;-82
2021/12/23 01:13:01;;;;;;;37.13;20.95;;;;;;;-0.86;100.00;98667.50;5108582;28;20434;-83
2021/12/23 01:18:07;;;;;;;37.05;20.40;;;;;;;-0.64;100.00;98663.59;5105481;28;20464;-83
2021/12/23 01:20:39;;;;;;;37.17;20.65;;;;;;;-0.61;100.00;98665.84;5104786;28;20111;-84
2021/12/23 01:23:10;;;;;;;38.33;19.63;;;;;;;-0.59;100.00;98666.47;5103621;28;20032;-82
2021/12/23 01:25:38;;;;;;;42.58;21.17;;;;;;;-0.56;100.00;98671.41;5105232;28;20032;-82
2021/12/23 01:28:06;;;;;;;37.95;20.73;;;;;;;-0.48;100.00;98662.34;5105160;28;20334;-83
2021/12/23 01:30:32;;;;;;;40.85;20.90;;;;;;;-0.46;100.00;98661.09;5105694;28;20020;-83
2021/12/23 01:32:58;;;;;;;36.47;19.27;;;;;;;-0.35;100.00;98657.78;5104209;28;20035;-82
2021/12/23 01:35:26;;;;;;;35.47;19.13;;;;;;;-0.26;100.00;98653.84;5103976;28;20024;-82
2021/12/23 01:37:52;;;;;;;36.83;19.70;;;;;;;-0.28;100.00;98655.91;5104999;28;20098;-82
2021/12/23 01:40:20;;;;;;;35.72;19.70;;;;;;;-0.34;100.00;98653.22;5105418;28;20025;-84
2021/12/23 01:42:46;;;;;;;37.17;19.67;;;;;;;-0.30;100.00;98657.16;5104837;28;20024;-84
2021/12/23 01:45:19;;;;;;;38.42;19.80;;;;;;;-0.35;100.00;98657.78;5105337;28;20480;-83
2021/12/23 01:47:45;;;;;;;38.45;19.40;;;;;;;-0.46;100.00;98657.56;5105045;28;20038;-82
2021/12/23 01:50:13;;;;;;;38.28;20.83;;;;;;;-0.41;100.00;98650.56;5104735;28;20038;-84
2021/12/23 01:52:39;;;;;;;37.33;20.90;;;;;;;-0.43;100.00;98660.69;5105602;28;20032;-84
2021/12/23 01:55:08;;;;;;;36.97;19.63;;;;;;;-0.37;100.00;98659.84;5105698;28;20045;-81
2021/12/23 01:57:35;;;;;;;39.22;19.60;;;;;;;-0.36;100.00;98641.88;5104009;28;20634;-84
2021/12/23 02:00:07;;;;;;;41.22;20.95;;;;;;;-0.29;100.00;98640.00;5105351;28;20063;-82
2021/12/23 02:02:32;;;;;;;34.80;18.73;;;;;;;-0.22;100.00;98630.88;5102162;28;20024;-82
2021/12/23 02:04:58;;;;;;;37.90;19.55;;;;;;;-0.19;100.00;98646.59;5102064;28;20035;-84
2021/12/23 02:07:23;;;;;;;37.60;20.23;;;;;;;-0.24;100.00;98637.50;5101737;28;20020;-83
2021/12/23 02:09:49;;;;;;;37.45;19.73;;;;;;;-0.15;100.00;98630.88;5100476;28;20027;-83
2021/12/23 02:12:15;;;;;;;38.55;19.67;;;;;;;-0.10;100.00;98639.16;5101152;28;20050;-83
2021/12/23 02:14:40;;;;;;;33.55;17.85;;;;;;;-0.03;100.00;98630.00;5104054;28;20032;-83
2021/12/23 02:17:06;;;;;;;36.53;19.23;;;;;;;0.00;100.00;98637.66;5101014;28;20035;-82
2021/12/23 02:19:32;;;;;;;33.53;16.83;;;;;;;-0.17;100.00;98639.16;5100899;28;20023;-83
2021/12/23 02:21:58;;;;;;;30.00;16.65;;;;;;;-0.18;100.00;98618.69;5102979;28;20106;-80
2021/12/23 02:24:24;;;;;;;33.75;16.65;;;;;;;-0.24;100.00;98611.47;5101922;28;20028;-82
2021/12/23 02:26:49;;;;;;;31.70;17.48;;;;;;;-0.26;100.00;98612.72;5101499;28;20024;-84
2021/12/23 02:29:14;;;;;;;32.20;17.75;;;;;;;-0.25;100.00;98599.03;5100981;28;20032;-80
2021/12/23 02:31:40;;;;;;;33.90;17.45;;;;;;;-0.18;100.00;98604.41;5101960;28;20020;-83
2021/12/23 02:34:06;;;;;;;35.10;16.85;;;;;;;-0.14;100.00;98606.47;5102101;28;20016;-81
2021/12/23 02:36:31;;;;;;;36.25;17.25;;;;;;;-0.13;100.00;98608.13;5102724;28;20035;-84
2021/12/23 02:39:00;;;;;;;34.00;18.05;;;;;;;-0.16;100.00;98608.53;5103607;28;20023;-82
2021/12/23 02:41:26;;;;;;;32.47;18.10;;;;;;;-0.16;100.00;98596.97;5103787;28;20044;-83
2021/12/23 02:43:51;;;;;;;37.78;17.33;;;;;;;-0.18;100.00;98588.28;5103973;28;20024;-81
2021/12/23 02:46:18;;;;;;;35.78;17.85;;;;;;;-0.24;100.00;98587.28;5102632;28;20090;-77
2021/12/23 02:48:43;;;;;;;33.33;16.60;;;;;;;-0.26;100.00;98592.03;5101430;28;20020;-75
2021/12/23 02:51:12;;;;;;;37.63;17.77;;;;;;;-0.10;100.00;98591.59;5099978;28;20027;-83
2021/12/23 02:53:39;;;;;;;31.77;16.45;;;;;;;-0.11;100.00;98589.94;5100712;28;20089;-82
2021/12/23 02:56:06;;;;;;;28.73;15.10;;;;;;;-0.07;100.00;98583.09;5100440;28;20082;-84
2021/12/23 02:58:33;;;;;;;29.42;14.40;;;;;;;-0.06;100.00;98576.66;5101996;28;20044;-81
2021/12/23 03:01:03;;;;;;;28.15;13.80;;;;;;;0.02;100.00;98570.25;5114943;28;20073;-80
2021/12/23 03:03:28;;;;;;;24.55;13.38;;;;;;;-0.10;100.00;98572.78;5105470;28;20027;-83
2021/12/23 03:05:57;;;;;;;27.13;12.57;;;;;;;-0.13;100.00;98575.88;5095851;28;20028;-78
2021/12/23 03:08:34;;;;;;;29.38;14.20;;;;;;;-0.19;100.00;98573.22;5097993;28;20047;-81
2021/12/23 03:11:00;;;;;;;26.13;13.88;;;;;;;-0.23;100.00;98564.75;5099181;28;20028;-82
2021/12/23 03:13:26;;;;;;;26.85;13.07;;;;;;;-0.21;100.00;98559.97;5094741;28;20024;-78
2021/12/23 03:15:52;;;;;;;24.33;13.25;;;;;;;-0.16;100.00;98565.53;5097642;28;20034;-78
2021/12/23 03:18:18;;;;;;;23.48;13.05;;;;;;;-0.09;100.00;98566.34;5099353;28;20046;-76
2021/12/23 03:20:43;;;;;;;26.10;13.68;;;;;;;-0.10;100.00;98559.34;5101754;28;20067;-81
2021/12/23 03:23:09;;;;;;;28.00;13.52;;;;;;;-0.05;100.00;98545.22;5100081;28;20028;-83
2021/12/23 03:25:34;;;;;;;26.40;13.23;;;;;;;-0.13;100.00;98549.00;5099757;28;20105;-81
2021/12/23 03:28:00;;;;;;;25.15;13.18;;;;;;;-0.10;100.00;98569.25;5101631;28;20028;-83
2021/12/23 03:30:25;;;;;;;23.45;12.57;;;;;;;-0.07;100.00;98560.75;5101299;28;20024;-80
2021/12/23 03:32:51;;;;;;;25.45;13.43;;;;;;;-0.06;100.00;98549.78;5101316;28;20020;-78
2021/12/23 03:35:16;;;;;;;26.23;13.10;;;;;;;-0.01;100.00;98551.84;5101177;28;20119;-78
2021/12/23 03:37:43;;;;;;;22.55;12.73;;;;;;;-0.09;100.00;98560.13;5100446;28;20592;-80
2021/12/23 03:40:12;;;;;;;25.55;12.95;;;;;;;-0.14;100.00;98558.09;5100217;28;20059;-82
2021/12/23 03:42:39;;;;;;;23.70;12.30;;;;;;;-0.10;100.00;98543.19;5100151;28;20024;-82
2021/12/23 03:45:07;;;;;;;21.83;12.55;;;;;;;-0.07;100.00;98536.56;5098637;28;20028;-82
2021/12/23 03:47:33;;;;;;;28.05;13.02;;;;;;;-0.16;100.00;98527.91;5111235;28;20024;-83
2021/12/23 03:49:59;;;;;;;26.38;13.23;;;;;;;-0.15;100.00;98534.09;5102865;28;20018;-79
2021/12/23 03:52:24;;;;;;;22.88;12.18;;;;;;;-0.11;100.00;98530.78;5100175;28;20107;-82
2021/12/23 03:54:50;;;;;;;25.48;13.18;;;;;;;-0.17;100.00;98522.75;5117062;28;20032;-78
2021/12/23 03:57:15;;;;;;;24.48;13.18;;;;;;;-0.21;100.00;98525.03;5115500;28;20039;-81
2021/12/23 03:59:40;;;;;;;24.83;12.48;;;;;;;-0.30;100.00;98515.56;5115312;28;20020;-81
2021/12/23 04:02:06;;;;;;;28.95;13.30;;;;;;;-0.26;100.00;98514.09;5115496;28;20079;-80
2021/12/23 04:04:31;;;;;;;22.65;11.85;;;;;;;-0.17;100.00;98507.44;5117327;28;20020;-78
2021/12/23 04:06:57;;;;;;;22.20;11.73;;;;;;;-0.22;100.00;98507.25;5118580;28;20089;-81
2021/12/23 04:09:22;;;;;;;25.50;12.65;;;;;;;-0.21;100.00;98508.91;5115935;28;20028;-82
2021/12/23 04:11:48;;;;;;;22.85;12.43;;;;;;;-0.23;100.00;98497.56;5114749;28;20023;-82
2021/12/23 04:14:13;;;;;;;24.35;12.93;;;;;;;-0.30;100.00;98501.28;5116016;28;20008;-78
2021/12/23 04:16:39;;;;;;;26.98;12.95;;;;;;;-0.33;100.00;98509.78;5115245;28;20112;-77
2021/12/23 04:19:07;;;;;;;24.70;13.15;;;;;;;-0.27;100.00;98501.69;5114259;28;20157;-82
2021/12/23 04:21:33;;;;;;;23.98;13.05;;;;;;;-0.21;100.00;98490.09;5116267;28;20035;-77
2021/12/23 04:23:59;;;;;;;23.48;13.60;;;;;;;-0.29;100.00;98501.09;5117908;28;20054;-77
2021/12/23 04:26:24;;;;;;;24.55;13.75;;;;;;;-0.29;100.00;98501.09;5119273;28;20011;-80
2021/12/23 04:28:51;;;;;;;24.98;12.07;;;;;;;-0.26;100.00;98495.28;5116817;28;21312;-81
2021/12/23 04:31:19;;;;;;;21.55;12.15;;;;;;;-0.26;100.00;98486.41;5116787;28;20102;-82
2021/12/23 04:33:46;;;;;;;27.05;13.05;;;;;;;-0.27;100.00;98487.44;5115887;28;20403;-83
2021/12/23 04:36:12;;;;;;;24.50;12.05;;;;;;;-0.27;100.00;98482.88;5122519;28;20054;-81
2021/12/23 04:38:39;;;;;;;22.10;11.82;;;;;;;-0.27;100.00;98482.06;5118924;28;20055;-77
2021/12/23 04:41:05;;;;;;;24.30;11.48;;;;;;;-0.43;100.00;98483.34;5112880;28;20016;-79
2021/12/23 04:43:30;;;;;;;24.30;12.43;;;;;;;-0.38;100.00;98474.69;5096508;28;20031;-75
2021/12/23 04:45:56;;;;;;;23.00;11.88;;;;;;;-0.41;100.00;98486.69;5095932;28;20043;-81
2021/12/23 04:48:21;;;;;;;23.08;12.50;;;;;;;-0.45;100.00;98482.75;5096211;28;20153;-77
2021/12/23 04:50:47;;;;;;;27.92;13.82;;;;;;;-0.44;100.00;98487.09;5097608;28;20056;-81
2021/12/23 04:53:12;;;;;;;22.30;12.40;;;;;;;-0.46;100.00;98486.47;5116016;28;20039;-80
2021/12/23 04:55:38;;;;;;;23.13;12.55;;;;;;;-0.42;100.00;98479.66;5137644;28;20014;-78
2021/12/23 04:58:03;;;;;;;21.80;13.23;;;;;;;-0.45;100.00;98480.06;5125502;28;20032;-79
2021/12/23 05:00:28;;;;;;;24.42;12.50;;;;;;;-0.50;100.00;98471.81;5123320;28;20050;-81
2021/12/23 05:02:54;;;;;;;40.95;19.13;;;;;;;-0.49;100.00;98472.63;5119830;28;20046;-78
2021/12/23 05:05:19;;;;;;;25.35;14.30;;;;;;;-0.55;100.00;98472.47;5116120;28;20030;-78
2021/12/23 05:07:46;;;;;;;26.98;13.73;;;;;;;-0.59;100.00;98473.06;5117416;28;20034;-80
2021/12/23 05:10:12;;;;;;;30.58;14.82;;;;;;;-0.51;100.00;98480.09;5115308;28;20031;-78
2021/12/23 05:12:45;;;;;;;22.48;12.05;;;;;;;-0.58;100.00;98462.13;5116174;28;20093;-79
2021/12/23 05:15:14;;;;;;;23.75;12.73;;;;;;;-0.54;100.00;98467.91;5117272;28;20080;-78
2021/12/23 05:17:40;;;;;;;23.73;13.25;;;;;;;-0.62;100.00;98468.13;5117672;28;20031;-77
2021/12/23 05:20:08;;;;;;;30.15;13.45;;;;;;;-0.62;100.00;98457.38;5118823;27;20083;-75
2021/12/23 05:22:34;;;;;;;26.38;13.50;;;;;;;-0.67;100.00;98455.34;5129639;28;20039;-78
2021/12/23 05:24:59;;;;;;;27.73;13.50;;;;;;;-0.73;100.00;98455.38;5119234;28;20028;-78
2021/12/23 05:27:25;;;;;;;23.67;13.23;;;;;;;-0.75;100.00;98462.81;5115230;28;20023;-77
2021/12/23 05:29:50;;;;;;;28.98;15.40;;;;;;;-0.72;100.00;98457.81;5113984;28;20016;-80
2021/12/23 05:32:16;;;;;;;31.83;16.27;;;;;;;-0.78;100.00;98455.16;5114953;28;20062;-77
2021/12/23 05:34:41;;;;;;;25.70;14.15;;;;;;;-0.82;100.00;98453.94;5115576;28;20111;-77
2021/12/23 05:37:06;;;;;;;27.67;12.63;;;;;;;-0.81;100.00;98455.59;5115616;28;20027;-79
2021/12/23 05:39:32;;;;;;;24.50;12.60;;;;;;;-0.84;100.00;98442.59;5115959;28;20389;-78
2021/12/23 05:41:57;;;;;;;25.42;13.55;;;;;;;-0.86;100.00;98434.75;5118283;28;20046;-81
2021/12/23 05:44:23;;;;;;;28.42;13.52;;;;;;;-0.88;100.00;98438.69;5121689;28;20507;-79
2021/12/23 05:46:48;;;;;;;32.10;13.38;;;;;;;-0.91;100.00;98448.00;5119247;28;20072;-81
2021/12/23 05:49:14;;;;;;;26.00;13.32;;;;;;;-0.96;100.00;98442.41;5120266;28;20024;-78
2021/12/23 05:51:40;;;;;;;26.25;12.23;;;;;;;-1.07;100.00;98443.88;5119213;28;20039;-81
2021/12/23 05:54:05;;;;;;;24.83;12.77;;;;;;;-1.02;100.00;98439.75;5120395;28;20073;-83
2021/12/23 05:56:31;;;;;;;26.58;13.52;;;;;;;-1.12;100.00;98442.84;5122877;28;20034;-80
2021/12/23 05:59:07;;;;;;;25.40;13.63;;;;;;;-1.12;100.00;98435.63;5121122;27;20020;-76
2021/12/23 06:01:33;;;;;;;29.67;14.15;;;;;;;-1.07;100.00;98435.00;5121089;28;20051;-78
2021/12/23 06:03:58;;;;;;;23.50;12.77;;;;;;;-1.07;100.00;98426.97;5117845;28;20111;-81
2021/12/23 06:06:23;;;;;;;24.83;13.13;;;;;;;-1.11;100.00;98431.09;5117069;28;20496;-79
2021/12/23 06:08:49;;;;;;;24.55;12.95;;;;;;;-1.13;100.00;98422.44;5125074;28;20479;-83
2021/12/23 06:11:15;;;;;;;27.88;13.27;;;;;;;-1.23;100.00;98428.22;5116669;28;20066;-83
2021/12/23 06:13:41;;;;;;;26.20;14.13;;;;;;;-1.30;100.00;98424.72;5120266;28;20116;-79
2021/12/23 06:16:06;;;;;;;24.27;13.23;;;;;;;-1.28;100.00;98425.31;5118226;28;20019;-80
2021/12/23 06:18:31;;;;;;;28.67;13.70;;;;;;;-1.28;100.00;98424.50;5114653;28;20368;-77
2021/12/23 06:20:57;;;;;;;30.48;13.80;;;;;;;-1.26;100.00;98422.44;5118841;28;20023;-77
2021/12/23 06:23:22;;;;;;;27.80;15.98;;;;;;;-1.28;100.00;98414.59;5117038;28;20019;-79
2021/12/23 06:25:52;;;;;;;29.95;13.88;;;;;;;-1.18;100.00;98425.72;5121064;28;20023;-83
2021/12/23 06:28:18;;;;;;;27.52;14.57;;;;;;;-1.18;100.00;98433.78;5116620;28;20016;-79
2021/12/23 06:30:43;;;;;;;28.50;14.48;;;;;;;-1.21;100.00;98426.16;5115985;28;20027;-76
2021/12/23 06:33:12;;;;;;;28.17;13.43;;;;;;;-1.27;100.00;98431.53;5114427;28;20028;-75
2021/12/23 06:35:38;;;;;;;28.00;14.23;;;;;;;-1.39;100.00;98431.34;5114513;28;20146;-75
2021/12/23 06:38:09;;;;;;;31.33;14.45;;;;;;;-1.27;100.00;98431.53;5114243;28;20431;-75
2021/12/23 06:40:35;;;;;;;38.17;16.63;;;;;;;-1.18;100.00;98428.41;5113992;28;20127;-78
2021/12/23 06:43:01;;;;;;;36.75;16.88;;;;;;;-1.27;100.00;98424.31;5113376;27;20028;-76
2021/12/23 06:45:26;;;;;;;32.42;15.50;;;;;;;-1.33;100.00;98427.81;5112651;28;20020;-76
2021/12/23 06:47:58;;;;;;;32.60;15.32;;;;;;;-1.28;100.00;98427.19;5112014;28;20023;-74
2021/12/23 06:50:23;;;;;;;28.52;14.63;;;;;;;-1.26;100.00;98412.56;5112266;28;20037;-75
2021/12/23 06:52:50;;;;;;;29.95;13.85;;;;;;;-1.26;100.00;98425.97;5111802;28;20055;-75
2021/12/23 06:55:17;;;;;;;27.50;14.27;;;;;;;-1.29;100.00;98433.59;5113353;28;20031;-77
2021/12/23 06:57:43;;;;;;;31.50;15.40;;;;;;;-1.27;100.00;98427.00;5112058;28;20143;-78
2021/12/23 07:00:15;;;;;;;29.55;14.68;;;;;;;-1.20;100.00;98438.53;5112323;28;20034;-76
2021/12/23 07:02:42;;;;;;;29.50;14.80;;;;;;;-1.27;100.00;98429.66;5111501;28;20023;-76
2021/12/23 07:05:11;;;;;;;28.33;14.70;;;;;;;-1.27;100.00;98431.53;5106113;28;20028;-80
2021/12/23 07:07:42;;;;;;;30.73;14.93;;;;;;;-1.23;100.00;98430.91;5113148;28;20032;-83
2021/12/23 07:10:09;;;;;;;32.28;13.35;;;;;;;-1.24;100.00;98437.31;5125169;28;20043;-83
2021/12/23 07:12:35;;;;;;;26.25;13.70;;;;;;;-1.26;100.00;98435.88;5124071;28;20077;-82
2021/12/23 07:15:00;;;;;;;27.90;13.70;;;;;;;-1.32;100.00;98434.84;5124172;28;20023;-84
2021/12/23 07:17:26;;;;;;;27.85;12.90;;;;;;;-1.33;100.00;98441.25;5122608;28;20027;-81
2021/12/23 07:19:51;;;;;;;27.65;13.82;;;;;;;-1.32;100.00;98429.47;5124919;28;20031;-83
2021/12/23 07:22:17;;;;;;;28.63;14.20;;;;;;;-1.11;100.00;98444.50;5119233;28;20039;-78
2021/12/23 07:24:42;;;;;;;26.33;14.27;;;;;;;-1.10;100.00;98438.91;5111748;28;20027;-77
2021/12/23 07:27:09;;;;;;;26.75;12.90;;;;;;;-1.15;100.00;98440.59;5114071;28;20035;-78
2021/12/23 07:29:34;;;;;;;35.58;14.15;;;;;;;-1.08;100.00;98442.25;5124306;28;20050;-76
2021/12/23 07:32:02;;;;;;;28.00;13.55;;;;;;;-1.03;100.00;98438.09;5122220;28;20023;-78
2021/12/23 07:34:28;;;;;;;27.48;14.38;;;;;;;-1.01;100.00;98439.53;5111541;28;20061;-78
2021/12/23 07:36:54;;;;;;;29.23;13.13;;;;;;;-1.00;100.00;98438.50;5112287;28;20058;-78
2021/12/23 07:39:19;;;;;;;30.30;15.05;;;;;;;-1.04;100.00;98431.91;5109406;28;20565;-77
2021/12/23 07:41:45;;;;;;;27.13;13.85;;;;;;;-1.16;100.00;98428.22;5112537;28;20022;-77
2021/12/23 07:44:20;;;;;;;30.05;14.30;;;;;;;-1.24;100.00;98423.88;5118010;28;20031;-80
2021/12/23 07:46:45;;;;;;;27.33;13.73;;;;;;;-1.29;100.00;98426.38;5118639;28;20384;-82
2021/12/23 07:49:11;;;;;;;26.67;13.40;;;;;;;-1.24;100.00;98426.56;5109295;28;20042;-78
2021/12/23 07:51:36;;;;;;;27.60;14.50;;;;;;;-1.13;100.00;98427.81;5106931;28;20055;-80
2021/12/23 07:54:02;;;;;;;27.50;13.77;;;;;;;-1.11;100.00;98415.81;5109436;28;20070;-76
2021/12/23 07:56:27;;;;;;;26.08;12.52;;;;;;;-1.09;100.00;98412.91;5108675;28;20031;-76
2021/12/23 07:58:53;;;;;;;25.00;12.02;;;;;;;-1.08;100.00;98393.94;5110369;28;20085;-76
2021/12/23 08:01:21;;;;;;;28.88;13.82;;;;;;;-1.08;100.00;98406.53;5110593;28;20027;-75
2021/12/23 08:03:46;;;;;;;33.08;15.85;;;;;;;-1.01;100.00;98419.94;5108747;28;20024;-78
2021/12/23 08:06:12;;;;;;;35.05;16.10;;;;;;;-0.99;100.00;98418.69;5110415;28;20377;-75
2021/12/23 08:08:37;;;;;;;29.60;14.88;;;;;;;-0.96;100.00;98417.41;5109758;28;20063;-78
2021/12/23 08:11:03;;;;;;;28.80;13.45;;;;;;;-0.91;100.00;98420.31;5115778;28;20020;-80
2021/12/23 08:13:29;;;;;;;30.80;14.23;;;;;;;-0.88;100.00;98425.25;5113700;28;20088;-75
2021/12/23 08:15:57;;;;;;;29.25;14.13;;;;;;;-0.93;100.00;98412.47;5116267;28;20027;-76
2021/12/23 08:18:23;;;;;;;31.90;15.63;;;;;;;-0.92;100.00;98407.94;5116049;28;20032;-73
2021/12/23 08:20:48;;;;;;;26.48;13.10;;;;;;;-0.91;100.00;98409.59;5119361;28;20108;-73
2021/12/23 08:23:13;;;;;;;23.60;12.95;;;;;;;-0.76;100.00;98408.28;5115183;27;20110;-76
2021/12/23 08:25:39;;;;;;;29.25;14.40;;;;;;;-0.71;100.00;98399.59;5110685;28;20468;-75
2021/12/23 08:28:05;;;;;;;26.73;14.02;;;;;;;-0.92;100.00;98394.50;5115629;28;20165;-77
2021/12/23 08:30:32;;;;;;;23.27;12.40;;;;;;;-0.70;100.00;98401.25;5115038;28;20099;-75
2021/12/23 08:32:57;;;;;;;26.95;13.70;;;;;;;-0.52;100.00;98395.16;5113058;28;20030;-77
2021/12/23 08:35:23;;;;;;;27.80;13.60;;;;;;;-0.45;100.00;98394.09;5112086;28;20031;-74
2021/12/23 08:37:49;;;;;;;28.92;13.38;;;;;;;-0.51;100.00;98394.97;5113670;27;20032;-76
2021/12/23 08:40:22;;;;;;;27.55;14.73;;;;;;;-0.50;100.00;98385.06;5112919;28;20016;-77
2021/12/23 08:42:49;;;;;;;27.20;14.07;;;;;;;-0.58;100.00;98391.47;5111945;28;20031;-79
2021/12/23 08:45:15;;;;;;;27.02;13.88;;;;;;;-0.50;100.00;98396.59;5113429;28;20016;-78
2021/12/23 08:47:41;;;;;;;27.55;14.77;;;;;;;-0.48;100.00;98397.22;5113254;28;20391;-75
2021/12/23 08:50:08;;;;;;;33.17;14.60;;;;;;;-0.35;100.00;98389.09;5113458;28;20024;-74
2021/12/23 08:52:34;;;;;;;27.88;13.20;;;;;;;-0.09;100.00;98397.00;5113329;28;20035;-77
2021/12/23 08:54:59;;;;;;;35.13;15.13;;;;;;;0.15;100.00;98391.88;5109508;28;20032;-78
2021/12/23 08:57:25;;;;;;;28.23;15.27;;;;;;;0.45;100.00;98388.31;5097706;28;20039;-77
2021/12/23 08:59:50;;;;;;;25.20;13.65;;;;;;;0.85;96.96;98391.44;5107243;28;20039;-77
2021/12/23 09:02:16;;;;;;;33.33;13.70;;;;;;;1.30;94.15;98397.38;5114013;28;20027;-77
2021/12/23 09:04:42;;;;;;;25.65;13.18;;;;;;;1.37;93.17;98400.00;5114685;28;20034;-78
2021/12/23 09:07:10;;;;;;;27.73;14.07;;;;;;;1.87;89.59;98401.44;5109907;28;20032;-78
2021/12/23 09:09:36;;;;;;;30.00;13.05;;;;;;;2.30;87.42;98400.38;5111728;28;20085;-81
2021/12/23 09:12:03;;;;;;;25.75;13.30;;;;;;;2.49;85.34;98404.63;5116232;28;20022;-77
2021/12/23 09:14:29;;;;;;;25.55;13.32;;;;;;;2.50;84.69;98409.00;5116599;28;20509;-73
2021/12/23 09:16:55;;;;;;;27.63;13.38;;;;;;;2.24;85.57;98399.44;5116487;28;20448;-76
2021/12/23 09:19:20;;;;;;;21.25;12.00;;;;;;;1.95;87.26;98398.41;5114007;28;20031;-77
2021/12/23 09:21:46;;;;;;;23.73;13.43;;;;;;;1.77;88.54;98390.38;5113837;28;20058;-79
2021/12/23 09:24:12;;;;;;;27.67;12.43;;;;;;;1.70;90.29;98386.94;5113780;27;20030;-79
2021/12/23 09:26:48;;;;;;;21.80;12.40;;;;;;;1.97;88.93;98390.88;5114242;27;20024;-76
2021/12/23 09:32:39;;;;;;;22.27;12.13;;;;;;;2.07;88.27;98380.38;5114079;28;20031;-75
2021/12/23 09:34:43;;;;;;;26.88;14.13;;;;;;;1.94;87.56;98369.78;5114446;28;20408;-76
2021/12/23 09:37:08;;;;;;;22.65;13.05;;;;;;;1.85;88.83;98370.34;5114161;28;20032;-77
2021/12/23 09:39:34;;;;;;;25.60;13.68;;;;;;;1.73;89.62;98369.47;5114357;28;20528;-76
2021/12/23 09:42:03;;;;;;;26.85;13.95;;;;;;;1.71;90.61;98385.06;5113477;28;20035;-75
2021/12/23 09:44:30;;;;;;;27.90;14.18;;;;;;;1.74;90.11;98371.13;5113436;28;20441;-76
2021/12/23 09:47:00;;;;;;;27.95;13.02;;;;;;;2.01;89.01;98373.19;5113478;28;20452;-73
2021/12/23 09:49:27;;;;;;;21.20;12.43;;;;;;;2.22;86.51;98365.63;5113501;28;20030;-74
2021/12/23 09:51:55;;;;;;;24.05;13.63;;;;;;;2.05;86.72;98360.91;5113682;28;20102;-75
2021/12/23 09:54:21;;;;;;;27.45;12.27;;;;;;;1.91;87.30;98356.75;5113217;28;20052;-77
2021/12/23 09:56:46;;;;;;;27.23;12.32;;;;;;;1.97;86.22;98352.34;5113814;28;20020;-75
2021/12/23 09:59:14;;;;;;;24.58;13.25;;;;;;;2.21;85.49;98342.41;5113727;28;20073;-74
2021/12/23 10:01:40;;;;;;;21.20;11.25;;;;;;;2.33;84.28;98346.75;5113501;28;20070;-75
2021/12/23 10:04:05;;;;;;;22.75;10.63;;;;;;;2.05;84.35;98335.81;5113559;28;20051;-75
2021/12/23 10:06:32;;;;;;;26.50;10.15;;;;;;;1.90;85.01;98347.03;5113093;28;20028;-75
2021/12/23 10:08:58;;;;;;;20.92;12.25;;;;;;;2.14;84.92;98347.91;5113500;28;20055;-76
2021/12/23 10:30:43;;;;;;;26.80;13.43;;;;;;;3.40;79.98;98317.50;5092791;28;20027;-79
2021/12/23 10:38:40;;;;;;;27.33;14.25;;;;;;;2.66;83.05;98295.69;5112969;28;20043;-76
2021/12/23 10:41:16;;;;;;;32.72;14.52;;;;;;;2.36;84.57;98311.22;5113108;28;20028;-78
2021/12/23 10:43:52;;;;;;;28.13;14.07;;;;;;;2.31;86.71;98304.88;5112879;28;20023;-77
2021/12/23 10:46:24;;;;;;;27.67;14.57;;;;;;;2.12;87.40;98302.28;5113096;28;20115;-80
2021/12/23 10:52:03;;;;;;;42.33;15.25;;;;;;;2.54;85.93;98277.88;5112810;28;20042;-78
2021/12/23 11:00:37;;;;;;;26.70;14.40;;;;;;;3.13;82.88;98269.41;5112038;28;20043;-77
2021/12/23 11:05:53;;;;;;;29.67;15.55;;;;;;;2.93;84.14;98249.28;5112296;28;20059;-73
2021/12/23 11:08:36;;;;;;;33.90;16.10;;;;;;;3.09;84.30;98254.75;5112740;28;20028;-78
2021/12/23 11:37:04;;;;;;;38.33;17.88;;;;;;;4.18;81.02;98212.84;5048502;28;20451;-77
2021/12/23 11:42:14;;;;;;;33.08;17.00;;;;;;;3.95;81.93;98202.19;5111316;28;20024;-75
2021/12/23 11:44:34;;;;;;;35.72;17.05;;;;;;;3.91;82.95;98184.03;5111217;28;20122;-76
2021/12/23 11:47:08;;;;;;;36.97;16.77;;;;;;;3.92;84.02;98186.47;5111835;28;20122;-74
2021/12/23 11:49:38;;;;;;;28.70;16.60;;;;;;;3.98;82.39;98190.88;5111386;28;20030;-75
2021/12/23 11:52:03;;;;;;;33.08;16.77;;;;;;;3.86;83.54;98194.75;5111293;28;20028;-76
2021/12/23 11:54:35;;;;;;;34.13;16.88;;;;;;;3.80;84.47;98188.44;5111253;28;20044;-75
2021/12/23 11:57:06;;;;;;;46.10;17.25;;;;;;;3.81;84.94;98186.56;5112231;28;20027;-76
2021/12/23 11:59:35;;;;;;;39.38;17.80;;;;;;;3.34;86.80;98186.03;5111338;28;20480;-77
2021/12/23 12:02:10;;;;;;;41.47;17.27;;;;;;;3.17;88.38;98188.69;5111327;28;20032;-77
2021/12/23 12:04:37;;;;;;;37.45;18.52;;;;;;;3.12;89.18;98173.22;5110244;28;20032;-79
2021/12/23 12:07:14;;;;;;;30.63;17.80;;;;;;;3.14;90.01;98181.91;5111390;28;20112;-78
2021/12/23 12:09:56;;;;;;;39.13;18.13;;;;;;;3.02;91.09;98181.13;5111816;28;20058;-77
2021/12/23 12:12:21;;;;;;;44.22;17.42;;;;;;;3.33;92.57;98173.56;5111402;28;20027;-75
2021/12/23 12:14:47;;;;;;;32.85;17.20;;;;;;;3.55;89.43;98177.19;5109874;28;20027;-77
2021/12/23 12:17:24;;;;;;;38.60;19.58;;;;;;;3.36;89.29;98163.09;5111062;28;20032;-77
2021/12/23 12:20:09;;;;;;;32.35;17.20;;;;;;;3.20;89.97;98166.59;5111057;28;20028;-76
2021/12/23 12:22:54;;;;;;;33.17;17.33;;;;;;;2.96;91.07;98157.78;5111373;28;20104;-78
2021/12/23 12:25:23;;;;;;;37.22;18.17;;;;;;;2.99;91.99;98165.41;5111237;28;20020;-76